Terminal Aerodrome Forecast
Issued by NWS

Home | Current Version | Previous Version | Text Only | Print | Product List | Glossary On
Versions: 1 2 3 4 5 6 7 8 9 10 11 12 13 14 15 16 17 18 19 20 21 22 23 24 25 26 27 28 29 30 31 32 33 34 35 36 37 38 39 40 41 42 43 44 45 46 47
000
FTUS45 KBOU 251723
TAFAPA
TAF
KAPA 251723Z 2518/2618 09009KT P6SM FEW080 SCT140
     FM252300 04011KT P6SM SCT080 BKN140
     FM260600 30008KT P6SM SCT100 BKN150
     FM260800 18006KT P6SM SCT150
     FM261600 08008KT P6SM VCSH BKN060 OVC120=

USA.gov is the U.S. government's official web portal to all federal, state and local government web resources and services.